Time;durP1;ratioP1;P1;durP2;ratioP2;P2;SDS_P1;SDS_P2;PMS_P1;PMS_P2;Temp;Humidity;BMP_temperature;BMP_pressure;BME280_temperature;BME280_humidity;BME280_pressure;Samples;Min_cycle;Max_cycle;Signal;HPM_P1;HPM_P2
2022/08/21 00:01:20;;;;;;;;;;;19.80;86.60;;;;;;5073342;28;20377;-65
2022/08/21 00:03:46;;;;;;;;;;;19.80;87.00;;;;;;5072191;28;20392;-64
2022/08/21 00:06:11;;;;;;;;;;;19.80;86.50;;;;;;5073074;28;19919;-66
2022/08/21 00:08:37;;;;;;;;;;;19.80;87.40;;;;;;5072990;28;19915;-66
2022/08/21 00:11:03;;;;;;;;;;;19.70;88.40;;;;;;5072823;28;19909;-65
2022/08/21 00:13:28;;;;;;;;;;;19.70;86.90;;;;;;5072494;28;19908;-66
2022/08/21 00:15:54;;;;;;;;;;;19.60;87.70;;;;;;5072877;28;19916;-65
2022/08/21 00:18:20;;;;;;;;;;;19.70;87.60;;;;;;5072280;28;19909;-65
2022/08/21 00:20:46;;;;;;;;;;;19.60;88.50;;;;;;5072845;28;20357;-66
2022/08/21 00:23:12;;;;;;;;;;;19.60;88.10;;;;;;5072634;28;19924;-65
2022/08/21 00:25:39;;;;;;;;;;;19.60;88.70;;;;;;5072954;28;19995;-66
2022/08/21 00:28:06;;;;;;;;;;;19.50;88.60;;;;;;5073262;28;19908;-65
2022/08/21 00:30:32;;;;;;;;;;;19.50;90.10;;;;;;5072703;28;19920;-66
2022/08/21 00:32:58;;;;;;;;;;;19.50;89.80;;;;;;5071902;28;20399;-65
2022/08/21 00:35:30;;;;;;;;;;;19.40;89.40;;;;;;5072970;28;19912;-65
2022/08/21 00:37:55;;;;;;;;;;;19.40;89.30;;;;;;5054323;28;20273;-66
2022/08/21 00:40:28;;;;;;;;;;;19.40;88.80;;;;;;5072183;28;19914;-65
2022/08/21 00:42:53;;;;;;;;;;;19.40;89.30;;;;;;5072784;28;19974;-66
2022/08/21 00:45:19;;;;;;;;;;;19.40;89.40;;;;;;5072209;28;19942;-67
2022/08/21 00:47:45;;;;;;;;;;;19.30;89.40;;;;;;5071456;28;19913;-64
2022/08/21 00:50:11;;;;;;;;;;;19.20;90.00;;;;;;5072186;28;20015;-66
2022/08/21 00:52:37;;;;;;;;;;;19.30;90.00;;;;;;5073059;28;19908;-65
2022/08/21 00:55:04;;;;;;;;;;;19.30;90.40;;;;;;5054024;28;20284;-65
2022/08/21 00:57:33;;;;;;;;;;;19.20;91.10;;;;;;5071638;28;20006;-66
2022/08/21 01:00:00;;;;;;;;;;;19.20;91.00;;;;;;5072494;28;19912;-66
2022/08/21 01:02:26;;;;;;;;;;;19.20;91.40;;;;;;5071610;28;19917;-65
2022/08/21 01:04:52;;;;;;;;;;;19.10;91.40;;;;;;5071814;28;20286;-64
2022/08/21 01:07:18;;;;;;;;;;;19.10;91.10;;;;;;5071827;28;19908;-65
2022/08/21 01:09:45;;;;;;;;;;;19.10;91.10;;;;;;5071966;28;19913;-66
2022/08/21 01:12:11;;;;;;;;;;;19.10;91.80;;;;;;5072079;28;19912;-65
2022/08/21 01:14:38;;;;;;;;;;;19.00;91.20;;;;;;5071414;28;19955;-65
2022/08/21 01:17:03;;;;;;;;;;;19.00;91.30;;;;;;5071465;28;20323;-65
2022/08/21 01:19:29;;;;;;;;;;;19.00;91.10;;;;;;5071439;28;20373;-65
2022/08/21 01:21:55;;;;;;;;;;;18.90;91.50;;;;;;5071068;28;20071;-66
2022/08/21 01:24:21;;;;;;;;;;;18.90;91.40;;;;;;5070742;28;20369;-65
2022/08/21 01:26:47;;;;;;;;;;;18.80;91.40;;;;;;5071285;28;20345;-64
2022/08/21 01:29:19;;;;;;;;;;;18.90;92.00;;;;;;5070800;28;19909;-66
2022/08/21 01:31:45;;;;;;;;;;;18.80;91.50;;;;;;5070813;28;19912;-65
2022/08/21 01:34:13;;;;;;;;;;;18.80;91.30;;;;;;5053209;28;19909;-65
2022/08/21 01:36:39;;;;;;;;;;;18.80;91.80;;;;;;5071763;28;20285;-65
2022/08/21 01:39:04;;;;;;;;;;;18.80;92.10;;;;;;5071057;28;20422;-65
2022/08/21 01:41:30;;;;;;;;;;;18.70;91.20;;;;;;5071010;28;19916;-64
2022/08/21 01:43:55;;;;;;;;;;;18.70;91.70;;;;;;5070998;28;20338;-66
2022/08/21 01:46:21;;;;;;;;;;;18.70;91.50;;;;;;5071327;28;19908;-65
2022/08/21 01:48:47;;;;;;;;;;;18.70;91.50;;;;;;5071427;28;19921;-66
2022/08/21 01:51:12;;;;;;;;;;;18.60;92.00;;;;;;5071660;28;19908;-65
2022/08/21 01:53:38;;;;;;;;;;;18.60;91.70;;;;;;5071107;28;19990;-65
2022/08/21 01:56:05;;;;;;;;;;;18.60;92.50;;;;;;5071488;28;19939;-66
2022/08/21 01:58:31;;;;;;;;;;;18.60;91.70;;;;;;5070647;28;20003;-65
2022/08/21 02:00:56;;;;;;;;;;;18.60;92.40;;;;;;5071251;28;20000;-65
2022/08/21 02:03:22;;;;;;;;;;;18.50;92.60;;;;;;5071118;28;19917;-65
2022/08/21 02:05:48;;;;;;;;;;;18.50;92.00;;;;;;5070817;28;19920;-64
2022/08/21 02:08:13;;;;;;;;;;;18.50;92.60;;;;;;5071524;28;19954;-66
2022/08/21 02:10:40;;;;;;;;;;;18.50;92.70;;;;;;5071014;28;19913;-65
2022/08/21 02:13:07;;;;;;;;;;;18.50;92.50;;;;;;5070330;28;19912;-66
2022/08/21 02:15:32;;;;;;;;;;;18.40;92.90;;;;;;5052645;28;19912;-66
2022/08/21 02:17:59;;;;;;;;;;;18.50;92.60;;;;;;5071590;28;20352;-66
2022/08/21 02:20:27;;;;;;;;;;;18.40;92.60;;;;;;5071002;28;19954;-65
2022/08/21 02:22:53;;;;;;;;;;;18.40;92.30;;;;;;5070893;28;19923;-66
2022/08/21 02:25:19;;;;;;;;;;;18.40;92.30;;;;;;5052769;28;19912;-66
2022/08/21 02:27:47;;;;;;;;;;;18.40;93.30;;;;;;5070182;28;19909;-66
2022/08/21 02:30:18;;;;;;;;;;;18.30;93.30;;;;;;5070689;28;20341;-65
2022/08/21 02:32:43;;;;;;;;;;;18.30;92.90;;;;;;5070967;28;19915;-65
2022/08/21 02:35:09;;;;;;;;;;;18.30;93.60;;;;;;5072105;28;20007;-66
2022/08/21 02:37:55;;;;;;;;;;;18.30;93.80;;;;;;5074645;28;20419;-66
2022/08/21 02:40:22;;;;;;;;;;;18.30;93.70;;;;;;5073704;28;19940;-65
2022/08/21 02:42:48;;;;;;;;;;;18.20;94.00;;;;;;5074266;28;19952;-66
2022/08/21 02:45:14;;;;;;;;;;;18.20;94.20;;;;;;5074550;28;20570;-65
2022/08/21 02:47:46;;;;;;;;;;;18.20;93.70;;;;;;5074245;28;19919;-65
2022/08/21 02:50:11;;;;;;;;;;;18.10;93.60;;;;;;5074691;28;19917;-65
2022/08/21 02:52:37;;;;;;;;;;;18.10;94.30;;;;;;5074384;28;19919;-63
2022/08/21 02:55:03;;;;;;;;;;;18.10;94.50;;;;;;5074714;28;20010;-63
2022/08/21 02:57:28;;;;;;;;;;;18.00;94.60;;;;;;5073554;28;19997;-64
2022/08/21 02:59:54;;;;;;;;;;;18.00;94.40;;;;;;5074175;28;19962;-65
2022/08/21 03:02:21;;;;;;;;;;;18.00;94.40;;;;;;5074415;28;19929;-64
2022/08/21 03:04:46;;;;;;;;;;;17.90;94.40;;;;;;5074355;28;19927;-66
2022/08/21 03:07:12;;;;;;;;;;;17.90;94.40;;;;;;5074355;28;19913;-66
2022/08/21 03:09:38;;;;;;;;;;;17.90;94.60;;;;;;5073339;28;19909;-66
2022/08/21 03:12:04;;;;;;;;;;;17.90;94.40;;;;;;5055109;28;19915;-67
2022/08/21 03:14:29;;;;;;;;;;;17.90;95.20;;;;;;5074109;28;19912;-66
2022/08/21 03:16:55;;;;;;;;;;;17.90;95.00;;;;;;5071806;28;20355;-66
2022/08/21 03:19:20;;;;;;;;;;;17.80;95.30;;;;;;5074103;28;19908;-66
2022/08/21 03:21:46;;;;;;;;;;;17.90;94.50;;;;;;5073365;28;19921;-66
2022/08/21 03:24:12;;;;;;;;;;;17.80;93.80;;;;;;5073043;28;19915;-67
2022/08/21 03:26:37;;;;;;;;;;;17.80;94.50;;;;;;5073047;28;19908;-65
2022/08/21 03:29:03;;;;;;;;;;;17.70;94.50;;;;;;5073558;28;19912;-65
2022/08/21 03:31:30;;;;;;;;;;;17.70;95.20;;;;;;5073036;28;19909;-66
2022/08/21 03:33:56;;;;;;;;;;;17.70;96.00;;;;;;5073563;28;19915;-65
2022/08/21 03:36:22;;;;;;;;;;;17.70;96.00;;;;;;5073180;28;20043;-66
2022/08/21 03:38:47;;;;;;;;;;;17.60;95.40;;;;;;5073279;28;19912;-66
2022/08/21 03:41:13;;;;;;;;;;;17.60;94.90;;;;;;5073549;28;19909;-65
2022/08/21 03:43:38;;;;;;;;;;;17.60;96.20;;;;;;5073182;28;20063;-64
2022/08/21 03:46:04;;;;;;;;;;;17.50;96.50;;;;;;5072756;28;19909;-66
2022/08/21 03:48:30;;;;;;;;;;;17.50;96.30;;;;;;5073291;28;19925;-64
2022/08/21 03:50:56;;;;;;;;;;;17.60;96.60;;;;;;5073633;28;20277;-63
2022/08/21 03:53:22;;;;;;;;;;;17.50;96.60;;;;;;5073570;28;19909;-65
2022/08/21 03:55:48;;;;;;;;;;;17.50;95.90;;;;;;5072826;28;20023;-66
2022/08/21 03:58:15;;;;;;;;;;;17.50;96.10;;;;;;5073684;28;19908;-65
2022/08/21 04:00:41;;;;;;;;;;;17.50;96.20;;;;;;5073779;28;19915;-66
2022/08/21 04:03:06;;;;;;;;;;;17.50;96.50;;;;;;5072861;28;20288;-66
2022/08/21 04:05:32;;;;;;;;;;;17.40;96.30;;;;;;5054947;28;19908;-66
2022/08/21 04:07:59;;;;;;;;;;;17.40;96.60;;;;;;5072948;28;19909;-65
2022/08/21 04:10:26;;;;;;;;;;;17.40;96.00;;;;;;5072839;28;19916;-66
2022/08/21 04:12:52;;;;;;;;;;;17.40;96.30;;;;;;5072986;28;19916;-66
2022/08/21 04:15:18;;;;;;;;;;;17.40;97.20;;;;;;5072838;28;20365;-66
2022/08/21 04:17:43;;;;;;;;;;;17.30;97.00;;;;;;5073259;28;19952;-66
2022/08/21 04:20:09;;;;;;;;;;;17.30;96.80;;;;;;5073039;28;19912;-66
2022/08/21 04:22:34;;;;;;;;;;;17.30;97.40;;;;;;5072675;28;19923;-65
2022/08/21 04:25:00;;;;;;;;;;;17.20;97.80;;;;;;5072322;28;20361;-66
2022/08/21 04:27:25;;;;;;;;;;;17.20;97.10;;;;;;5072782;28;19909;-65
2022/08/21 04:29:51;;;;;;;;;;;17.20;97.40;;;;;;5072620;28;19915;-65
2022/08/21 04:32:25;;;;;;;;;;;17.10;97.60;;;;;;5072406;28;19908;-64
2022/08/21 04:34:58;;;;;;;;;;;17.10;97.80;;;;;;5054898;28;19913;-64
2022/08/21 04:37:24;;;;;;;;;;;17.10;97.80;;;;;;5072589;28;19961;-66
2022/08/21 04:39:49;;;;;;;;;;;17.10;97.60;;;;;;5071838;28;19909;-65
2022/08/21 04:42:15;;;;;;;;;;;17.10;98.00;;;;;;5072214;28;19923;-66
2022/08/21 04:44:41;;;;;;;;;;;17.10;98.30;;;;;;5072308;28;19999;-66
2022/08/21 04:47:06;;;;;;;;;;;17.10;98.80;;;;;;5072344;28;19912;-65
2022/08/21 04:49:32;;;;;;;;;;;17.10;98.60;;;;;;5072399;28;19974;-66
2022/08/21 04:51:58;;;;;;;;;;;17.10;97.70;;;;;;5072144;28;19962;-67
2022/08/21 04:54:24;;;;;;;;;;;17.10;98.20;;;;;;5071588;28;19912;-67
2022/08/21 04:56:53;;;;;;;;;;;17.10;97.70;;;;;;5054086;28;19913;-67
2022/08/21 04:59:20;;;;;;;;;;;17.10;98.70;;;;;;5072085;28;19908;-65
2022/08/21 05:01:46;;;;;;;;;;;17.10;98.00;;;;;;5054082;28;19962;-66
2022/08/21 05:04:13;;;;;;;;;;;17.10;98.60;;;;;;5072103;28;19913;-65
2022/08/21 05:06:40;;;;;;;;;;;17.00;99.50;;;;;;5071974;28;19948;-65
2022/08/21 05:09:09;;;;;;;;;;;17.00;98.90;;;;;;5071347;28;20464;-66
2022/08/21 05:11:34;;;;;;;;;;;17.00;98.80;;;;;;5071804;28;19947;-64
2022/08/21 05:14:00;;;;;;;;;;;17.00;98.30;;;;;;5071895;28;19966;-65
2022/08/21 05:16:26;;;;;;;;;;;17.00;98.60;;;;;;5071825;28;20487;-65
2022/08/21 05:18:51;;;;;;;;;;;17.00;98.30;;;;;;5071642;28;19915;-65
2022/08/21 05:21:17;;;;;;;;;;;17.00;98.40;;;;;;5071264;28;20289;-66
2022/08/21 05:23:43;;;;;;;;;;;17.10;98.80;;;;;;5071090;28;20452;-66
2022/08/21 05:26:08;;;;;;;;;;;17.10;99.00;;;;;;5071433;28;19908;-65
2022/08/21 05:28:34;;;;;;;;;;;17.10;99.00;;;;;;5072120;28;19915;-66
2022/08/21 05:30:59;;;;;;;;;;;17.10;98.60;;;;;;5069268;28;19920;-64
2022/08/21 05:33:25;;;;;;;;;;;17.10;98.90;;;;;;5068263;28;19909;-66
2022/08/21 05:35:51;;;;;;;;;;;17.10;98.90;;;;;;5071068;28;19912;-67
2022/08/21 05:38:17;;;;;;;;;;;17.10;98.60;;;;;;5071460;28;19958;-64
2022/08/21 05:40:43;;;;;;;;;;;17.10;97.70;;;;;;5053351;28;19943;-66
2022/08/21 05:43:08;;;;;;;;;;;17.10;98.00;;;;;;5071950;28;19916;-64
2022/08/21 05:45:34;;;;;;;;;;;17.20;99.00;;;;;;5071191;28;20272;-65
2022/08/21 05:48:08;;;;;;;;;;;17.20;98.30;;;;;;5067182;28;20297;-66
2022/08/21 05:50:34;;;;;;;;;;;17.20;98.80;;;;;;5064985;28;19966;-64
2022/08/21 05:53:00;;;;;;;;;;;17.20;98.60;;;;;;5070943;28;20376;-65
2022/08/21 05:55:25;;;;;;;;;;;17.30;98.40;;;;;;5071378;28;20274;-66
2022/08/21 05:57:52;;;;;;;;;;;17.30;98.90;;;;;;5067889;28;19947;-66
2022/08/21 06:00:17;;;;;;;;;;;17.30;98.90;;;;;;5071347;28;19915;-64
2022/08/21 06:02:43;;;;;;;;;;;17.30;98.00;;;;;;5071058;28;20325;-65
2022/08/21 06:05:08;;;;;;;;;;;17.40;97.90;;;;;;5071085;28;19908;-66
2022/08/21 06:07:34;;;;;;;;;;;17.40;98.30;;;;;;5053187;28;19908;-65
2022/08/21 06:10:00;;;;;;;;;;;17.40;98.50;;;;;;5072892;28;20322;-63
2022/08/21 06:12:25;;;;;;;;;;;17.50;98.00;;;;;;5076649;28;19912;-64
2022/08/21 06:14:51;;;;;;;;;;;17.60;98.10;;;;;;5077313;28;19965;-66
2022/08/21 06:17:17;;;;;;;;;;;17.60;98.40;;;;;;5077961;28;19919;-62
2022/08/21 06:19:43;;;;;;;;;;;17.60;98.00;;;;;;5075705;28;19917;-66
2022/08/21 06:22:09;;;;;;;;;;;17.70;98.10;;;;;;5074886;28;19975;-64
2022/08/21 06:24:35;;;;;;;;;;;17.70;98.30;;;;;;5077459;28;19908;-65
2022/08/21 06:27:07;;;;;;;;;;;17.80;98.30;;;;;;5077001;28;19909;-64
2022/08/21 06:29:33;;;;;;;;;;;17.90;98.30;;;;;;5077366;28;19931;-64
2022/08/21 06:31:58;;;;;;;;;;;17.90;98.40;;;;;;5077184;28;20536;-64
2022/08/21 06:34:24;;;;;;;;;;;18.00;98.30;;;;;;5077042;28;19912;-64
2022/08/21 06:36:49;;;;;;;;;;;18.00;98.40;;;;;;5056034;28;19960;-63
2022/08/21 06:39:15;;;;;;;;;;;18.10;98.40;;;;;;5063277;28;19912;-63
2022/08/21 06:41:40;;;;;;;;;;;18.10;98.50;;;;;;5073166;28;19958;-64
2022/08/21 06:44:06;;;;;;;;;;;18.10;98.70;;;;;;5056691;28;19995;-63
2022/08/21 06:46:31;;;;;;;;;;;18.20;98.50;;;;;;5075318;28;19923;-65
2022/08/21 06:48:57;;;;;;;;;;;18.30;99.00;;;;;;5074128;28;19924;-63
2022/08/21 06:51:23;;;;;;;;;;;18.30;98.60;;;;;;5075062;28;19916;-62
2022/08/21 06:53:49;;;;;;;;;;;18.40;99.00;;;;;;5075171;28;19913;-63
2022/08/21 06:56:14;;;;;;;;;;;18.50;98.70;;;;;;5075061;28;20368;-61
2022/08/21 06:58:40;;;;;;;;;;;18.50;98.80;;;;;;5073148;28;20007;-63
2022/08/21 07:01:05;;;;;;;;;;;18.60;99.00;;;;;;5075399;28;19974;-63
2022/08/21 07:03:32;;;;;;;;;;;18.70;98.80;;;;;;5070136;28;19966;-63
2022/08/21 07:05:58;;;;;;;;;;;18.70;99.00;;;;;;5074306;28;19924;-62
2022/08/21 07:08:24;;;;;;;;;;;18.80;98.90;;;;;;5074818;28;19917;-62
2022/08/21 07:10:50;;;;;;;;;;;18.80;98.90;;;;;;5074530;28;19917;-62
2022/08/21 07:13:16;;;;;;;;;;;18.80;98.70;;;;;;5072639;28;20376;-62
2022/08/21 07:15:41;;;;;;;;;;;18.90;98.80;;;;;;5072403;28;19919;-62
2022/08/21 07:18:07;;;;;;;;;;;19.00;98.90;;;;;;5073906;28;19967;-61
2022/08/21 07:20:33;;;;;;;;;;;19.00;98.80;;;;;;5074445;28;19916;-61
2022/08/21 07:23:00;;;;;;;;;;;19.00;98.90;;;;;;5069231;28;19924;-62
2022/08/21 07:25:26;;;;;;;;;;;19.00;98.70;;;;;;5053317;28;19916;-63
2022/08/21 07:27:52;;;;;;;;;;;19.00;98.80;;;;;;5071809;28;19982;-63
2022/08/21 07:30:17;;;;;;;;;;;19.10;98.80;;;;;;5071703;28;20273;-61
2022/08/21 07:32:43;;;;;;;;;;;19.10;98.80;;;;;;5069065;28;19916;-61
2022/08/21 07:35:09;;;;;;;;;;;19.20;98.80;;;;;;5071741;28;19966;-62
2022/08/21 07:37:35;;;;;;;;;;;19.20;98.90;;;;;;5071386;28;19917;-63
2022/08/21 07:40:00;;;;;;;;;;;19.30;98.80;;;;;;5071526;28;19912;-63
2022/08/21 07:42:26;;;;;;;;;;;19.40;98.80;;;;;;5053263;28;19932;-63
2022/08/21 07:44:51;;;;;;;;;;;19.50;98.80;;;;;;5071070;28;19924;-63
2022/08/21 07:47:17;;;;;;;;;;;19.60;99.20;;;;;;5070718;28;20309;-63
2022/08/21 07:49:43;;;;;;;;;;;19.60;98.90;;;;;;5071313;28;19924;-63
2022/08/21 07:52:08;;;;;;;;;;;19.70;98.90;;;;;;5053090;28;20266;-63
2022/08/21 07:54:34;;;;;;;;;;;19.80;98.80;;;;;;5062398;28;19912;-64
2022/08/21 07:56:59;;;;;;;;;;;19.90;98.80;;;;;;5071032;28;19971;-61
2022/08/21 07:59:25;;;;;;;;;;;20.00;98.90;;;;;;5071207;28;19958;-63
2022/08/21 08:01:50;;;;;;;;;;;20.10;98.80;;;;;;5070356;28;19916;-61
2022/08/21 08:04:16;;;;;;;;;;;20.10;98.80;;;;;;5070925;28;19919;-62
2022/08/21 08:06:41;;;;;;;;;;;20.30;98.90;;;;;;5064401;28;20000;-63
2022/08/21 08:09:07;;;;;;;;;;;20.40;98.90;;;;;;5070787;28;19917;-63
2022/08/21 08:11:33;;;;;;;;;;;20.50;98.80;;;;;;5070189;28;20399;-63
2022/08/21 08:13:59;;;;;;;;;;;20.60;98.90;;;;;;5070674;28;20494;-63
2022/08/21 08:16:25;;;;;;;;;;;20.70;98.80;;;;;;5051883;28;19970;-63
2022/08/21 08:18:51;;;;;;;;;;;20.80;98.50;;;;;;5070245;28;19978;-64
2022/08/21 08:21:18;;;;;;;;;;;20.80;98.70;;;;;;5070891;28;20329;-64
2022/08/21 08:23:44;;;;;;;;;;;20.90;98.60;;;;;;5069939;28;20399;-63
2022/08/21 08:26:10;;;;;;;;;;;21.00;98.50;;;;;;5052084;28;19912;-62
2022/08/21 08:28:35;;;;;;;;;;;21.10;98.20;;;;;;5068346;28;20357;-64
2022/08/21 08:31:01;;;;;;;;;;;21.10;98.20;;;;;;5069730;28;19920;-63
2022/08/21 08:33:27;;;;;;;;;;;21.20;98.40;;;;;;5049606;28;19961;-61
2022/08/21 08:35:53;;;;;;;;;;;21.20;98.40;;;;;;5069704;28;20361;-63
2022/08/21 08:38:21;;;;;;;;;;;21.30;97.90;;;;;;5070730;28;19912;-62
2022/08/21 08:41:01;;;;;;;;;;;21.30;98.20;;;;;;5069712;28;19912;-62
2022/08/21 08:43:28;;;;;;;;;;;21.30;98.20;;;;;;5069129;28;19925;-64
2022/08/21 08:45:56;;;;;;;;;;;21.40;98.10;;;;;;5068838;28;19913;-64
2022/08/21 08:48:31;;;;;;;;;;;21.50;98.10;;;;;;5069950;28;19921;-63
2022/08/21 08:50:59;;;;;;;;;;;21.50;98.00;;;;;;5069754;28;20389;-63
2022/08/21 08:53:40;;;;;;;;;;;21.50;98.00;;;;;;5070073;28;20430;-62
2022/08/21 08:56:06;;;;;;;;;;;21.60;98.00;;;;;;5069207;28;19912;-61
2022/08/21 08:58:32;;;;;;;;;;;21.60;97.60;;;;;;5068721;28;19912;-62
2022/08/21 09:03:34;;;;;;;;;;;21.70;97.90;;;;;;5343472;22;19928;-59
2022/08/21 09:05:59;;;;;;;;;;;21.80;97.50;;;;;;5089798;28;19916;-61
2022/08/21 09:08:51;;;;;;;;;;;21.90;97.60;;;;;;5089589;28;19916;-60
2022/08/21 09:11:43;;;;;;;;;;;22.00;97.50;;;;;;5083354;28;20457;-61
2022/08/21 09:14:11;;;;;;;;;;;22.00;97.40;;;;;;5005242;28;19914;-62
2022/08/21 09:16:46;;;;;;;;;;;22.10;97.40;;;;;;5007050;28;19913;-61
2022/08/21 09:19:23;;;;;;;;;;;22.10;96.70;;;;;;5007208;28;19917;-61
2022/08/21 09:21:57;;;;;;;;;;;22.10;96.80;;;;;;5007142;28;19924;-61
2022/08/21 09:24:37;;;;;;;;;;;22.20;96.70;;;;;;5007642;28;19925;-61
2022/08/21 09:27:11;;;;;;;;;;;22.20;96.70;;;;;;5007334;28;20028;-60
2022/08/21 09:29:38;;;;;;;;;;;22.20;97.00;;;;;;5003134;28;19914;-60
2022/08/21 09:32:09;;;;;;;;;;;22.30;96.50;;;;;;5007233;28;19965;-62
2022/08/21 09:34:35;;;;;;;;;;;22.30;95.30;;;;;;5005948;28;19914;-61
2022/08/21 09:37:01;;;;;;;;;;;22.30;95.80;;;;;;5006239;28;20298;-60
2022/08/21 09:39:28;;;;;;;;;;;22.30;96.30;;;;;;5006504;28;19917;-61
2022/08/21 09:42:05;;;;;;;;;;;22.40;95.80;;;;;;5006390;28;19925;-58
2022/08/21 09:44:32;;;;;;;;;;;22.40;96.10;;;;;;5006107;28;19924;-59
2022/08/21 09:46:57;;;;;;;;;;;22.50;96.20;;;;;;5006181;28;20004;-61
2022/08/21 09:49:30;;;;;;;;;;;22.50;95.50;;;;;;5006093;28;20695;-57
2022/08/21 09:51:56;;;;;;;;;;;22.50;95.90;;;;;;5079668;28;19920;-57
2022/08/21 09:54:25;;;;;;;;;;;22.50;95.40;;;;;;5089336;28;19955;-56
2022/08/21 09:59:36;;;;;;;;;;;22.60;95.40;;;;;;5086010;28;19919;-57
2022/08/21 10:02:18;;;;;;;;;;;22.70;95.40;;;;;;5088892;28;20019;-56
2022/08/21 10:04:48;;;;;;;;;;;22.70;94.90;;;;;;5087426;28;20379;-57
2022/08/21 10:07:14;;;;;;;;;;;22.80;94.20;;;;;;5469251;22;20392;-63
2022/08/21 10:09:40;;;;;;;;;;;23.00;93.00;;;;;;5068698;28;19936;-63
2022/08/21 10:12:06;;;;;;;;;;;23.00;93.80;;;;;;5068499;28;20545;-63
2022/08/21 10:15:00;;;;;;;;;;;23.10;94.50;;;;;;5068214;28;19919;-62
2022/08/21 10:17:29;;;;;;;;;;;23.20;94.30;;;;;;4987402;28;19917;-62
2022/08/21 10:20:11;;;;;;;;;;;23.30;94.10;;;;;;5010926;28;19917;-61
2022/08/21 10:22:54;;;;;;;;;;;23.30;94.40;;;;;;5005540;28;19925;-61
2022/08/21 10:25:30;;;;;;;;;;;23.40;94.30;;;;;;5014635;28;20068;-63
2022/08/21 10:28:02;;;;;;;;;;;23.40;93.50;;;;;;5012742;28;19960;-61
2022/08/21 10:30:27;;;;;;;;;;;23.40;93.40;;;;;;5014965;28;19913;-62
2022/08/21 10:32:53;;;;;;;;;;;23.40;93.10;;;;;;5012070;28;20428;-63
2022/08/21 10:35:21;;;;;;;;;;;23.40;93.90;;;;;;5012510;28;19913;-62
2022/08/21 10:37:55;;;;;;;;;;;23.40;93.30;;;;;;5010316;28;19913;-63
2022/08/21 10:40:27;;;;;;;;;;;23.40;93.90;;;;;;5016497;28;19924;-60
2022/08/21 10:43:07;;;;;;;;;;;23.50;92.90;;;;;;5011001;28;19928;-62
2022/08/21 10:45:59;;;;;;;;;;;23.50;93.70;;;;;;5012453;28;19964;-60
2022/08/21 10:48:36;;;;;;;;;;;23.60;93.20;;;;;;4921983;29;19916;-59
2022/08/21 10:51:16;;;;;;;;;;;23.70;93.10;;;;;;4923956;29;19919;-62
2022/08/21 10:53:46;;;;;;;;;;;23.80;91.70;;;;;;4943599;28;19921;-61
2022/08/21 10:56:12;;;;;;;;;;;23.80;93.20;;;;;;4978346;28;19922;-61
2022/08/21 10:58:45;;;;;;;;;;;23.90;92.00;;;;;;4983144;28;19914;-61
2022/08/21 11:01:16;;;;;;;;;;;24.00;91.00;;;;;;4980653;28;20420;-62
2022/08/21 11:03:44;;;;;;;;;;;24.10;92.70;;;;;;4981283;28;19926;-61
2022/08/21 11:06:17;;;;;;;;;;;24.10;92.50;;;;;;4982939;28;19918;-61
2022/08/21 11:08:46;;;;;;;;;;;24.20;91.50;;;;;;4979704;28;19922;-60
2022/08/21 11:11:25;;;;;;;;;;;24.30;91.30;;;;;;4978434;28;20009;-62
2022/08/21 11:13:56;;;;;;;;;;;24.30;92.30;;;;;;4977732;28;19961;-61
2022/08/21 11:16:28;;;;;;;;;;;24.30;91.20;;;;;;4979354;28;19989;-63
2022/08/21 11:18:58;;;;;;;;;;;24.30;91.80;;;;;;4965828;28;20614;-63
2022/08/21 11:21:26;;;;;;;;;;;24.30;90.80;;;;;;4978338;28;20005;-62
2022/08/21 11:24:03;;;;;;;;;;;24.40;91.40;;;;;;4979636;28;19929;-62
2022/08/21 11:26:38;;;;;;;;;;;24.40;90.80;;;;;;5051244;28;19963;-63
2022/08/21 11:29:09;;;;;;;;;;;24.40;90.70;;;;;;5051656;28;19916;-62
2022/08/21 11:31:46;;;;;;;;;;;24.50;89.60;;;;;;5063853;28;19917;-64
2022/08/21 11:34:19;;;;;;;;;;;24.40;89.90;;;;;;5051633;28;20046;-63
2022/08/21 11:36:51;;;;;;;;;;;24.50;90.90;;;;;;5050888;28;19912;-62
2022/08/21 11:39:44;;;;;;;;;;;24.50;91.30;;;;;;5051378;28;19916;-63
2022/08/21 11:42:10;;;;;;;;;;;24.60;89.60;;;;;;5051399;28;19920;-62
2022/08/21 11:44:43;;;;;;;;;;;24.70;90.80;;;;;;5051234;28;19924;-61
2022/08/21 11:47:15;;;;;;;;;;;24.80;90.80;;;;;;5051162;28;19920;-61
2022/08/21 11:49:41;;;;;;;;;;;24.80;90.00;;;;;;5051278;28;19913;-63
2022/08/21 11:52:12;;;;;;;;;;;24.90;89.80;;;;;;5051477;28;19997;-61
2022/08/21 11:54:44;;;;;;;;;;;24.90;88.80;;;;;;5047280;28;19913;-64
2022/08/21 11:57:20;;;;;;;;;;;25.00;89.90;;;;;;5033457;28;19989;-62
2022/08/21 11:59:49;;;;;;;;;;;25.00;89.30;;;;;;5050925;28;19967;-61
2022/08/21 12:02:19;;;;;;;;;;;25.00;90.30;;;;;;5050912;28;19921;-62
2022/08/21 12:04:47;;;;;;;;;;;25.10;88.70;;;;;;5050693;28;19917;-62
2022/08/21 12:07:17;;;;;;;;;;;25.20;89.60;;;;;;5056363;28;19924;-60
2022/08/21 12:09:52;;;;;;;;;;;25.30;90.30;;;;;;5070488;28;19912;-62
2022/08/21 12:12:44;;;;;;;;;;;25.30;89.80;;;;;;5071013;28;19912;-61
2022/08/21 12:15:15;;;;;;;;;;;25.30;90.50;;;;;;5066371;28;19924;-63
2022/08/21 12:17:50;;;;;;;;;;;25.40;90.30;;;;;;5071373;28;19913;-61
2022/08/21 12:20:19;;;;;;;;;;;25.40;90.40;;;;;;5052384;28;19916;-62
2022/08/21 12:22:51;;;;;;;;;;;25.50;90.50;;;;;;5070074;28;19967;-63
2022/08/21 12:25:18;;;;;;;;;;;25.50;89.10;;;;;;5070661;28;19912;-62
2022/08/21 12:27:48;;;;;;;;;;;25.60;89.20;;;;;;5070335;28;20031;-63
2022/08/21 12:30:23;;;;;;;;;;;25.70;90.20;;;;;;5070170;28;19916;-61
2022/08/21 12:32:56;;;;;;;;;;;25.80;89.00;;;;;;5069511;28;19912;-64
2022/08/21 12:35:27;;;;;;;;;;;25.80;89.50;;;;;;5068980;28;19916;-63
2022/08/21 12:37:58;;;;;;;;;;;25.90;90.20;;;;;;5069596;28;19912;-62
2022/08/21 12:40:24;;;;;;;;;;;25.90;90.10;;;;;;5069162;28;19916;-63
2022/08/21 12:42:51;;;;;;;;;;;26.00;89.60;;;;;;5069911;28;19924;-65
2022/08/21 12:45:19;;;;;;;;;;;26.00;90.20;;;;;;5069862;28;19938;-63
2022/08/21 12:48:00;;;;;;;;;;;26.10;90.40;;;;;;5070049;28;20295;-65
2022/08/21 12:50:33;;;;;;;;;;;26.10;90.40;;;;;;5069142;28;19913;-64
2022/08/21 12:53:07;;;;;;;;;;;26.20;89.30;;;;;;5069718;28;20046;-63
2022/08/21 12:55:34;;;;;;;;;;;26.20;89.10;;;;;;5070114;28;19913;-63
2022/08/21 12:58:00;;;;;;;;;;;26.20;87.70;;;;;;5051305;28;20630;-63
2022/08/21 13:00:26;;;;;;;;;;;26.20;89.60;;;;;;5069686;28;19920;-63
2022/08/21 13:02:52;;;;;;;;;;;26.20;88.80;;;;;;5069913;28;19935;-63
2022/08/21 13:05:28;;;;;;;;;;;26.30;87.40;;;;;;5067773;28;19913;-63
2022/08/21 13:07:53;;;;;;;;;;;26.30;88.30;;;;;;5069185;28;19924;-63
2022/08/21 13:10:19;;;;;;;;;;;26.20;86.40;;;;;;5051922;28;19912;-63
2022/08/21 13:12:45;;;;;;;;;;;26.20;87.00;;;;;;5069647;28;19917;-65
2022/08/21 13:15:11;;;;;;;;;;;26.20;87.50;;;;;;5068902;28;19912;-64
2022/08/21 13:17:39;;;;;;;;;;;26.20;87.30;;;;;;5069638;28;20011;-64
2022/08/21 13:20:08;;;;;;;;;;;26.20;87.70;;;;;;5069452;28;19916;-64
2022/08/21 13:22:40;;;;;;;;;;;26.20;88.20;;;;;;5069353;28;19974;-64
2022/08/21 13:25:09;;;;;;;;;;;26.30;87.70;;;;;;5069854;28;19917;-63
2022/08/21 13:27:35;;;;;;;;;;;26.30;86.40;;;;;;5067072;28;19913;-63
2022/08/21 13:30:10;;;;;;;;;;;26.20;86.50;;;;;;5069773;28;20345;-63
2022/08/21 13:32:38;;;;;;;;;;;26.20;85.50;;;;;;5067726;28;19912;-64
2022/08/21 13:35:15;;;;;;;;;;;26.20;84.40;;;;;;5069453;28;20011;-64
2022/08/21 13:37:42;;;;;;;;;;;26.20;84.70;;;;;;5068860;28;20261;-63
2022/08/21 13:40:25;;;;;;;;;;;26.30;84.70;;;;;;5051221;28;19920;-63
2022/08/21 13:42:51;;;;;;;;;;;26.30;85.30;;;;;;5068097;28;19920;-65
2022/08/21 13:45:31;;;;;;;;;;;26.30;85.00;;;;;;5069290;28;19924;-62
2022/08/21 13:47:57;;;;;;;;;;;26.30;83.50;;;;;;5069116;28;20384;-63
2022/08/21 13:50:24;;;;;;;;;;;26.30;83.50;;;;;;5068510;28;19920;-64
2022/08/21 13:53:05;;;;;;;;;;;26.30;84.30;;;;;;5068962;28;20015;-64
2022/08/21 13:55:39;;;;;;;;;;;26.30;85.10;;;;;;5068590;28;19912;-63
2022/08/21 13:58:05;;;;;;;;;;;26.30;84.80;;;;;;5069629;28;19912;-63
2022/08/21 14:00:34;;;;;;;;;;;26.30;85.00;;;;;;5051385;28;20320;-62
2022/08/21 14:03:05;;;;;;;;;;;26.30;82.10;;;;;;5068808;28;19947;-62
2022/08/21 14:05:32;;;;;;;;;;;26.30;82.80;;;;;;5069357;28;19988;-63
2022/08/21 14:08:01;;;;;;;;;;;26.30;83.10;;;;;;5069355;28;19982;-64
2022/08/21 14:10:28;;;;;;;;;;;26.30;83.60;;;;;;5068692;28;19913;-63
2022/08/21 14:12:54;;;;;;;;;;;26.30;82.70;;;;;;5068702;28;19920;-64
2022/08/21 14:15:25;;;;;;;;;;;26.30;83.80;;;;;;5068187;28;19913;-61
2022/08/21 14:17:51;;;;;;;;;;;26.30;83.20;;;;;;5068712;28;20380;-58
2022/08/21 14:20:31;;;;;;;;;;;26.30;83.50;;;;;;5068993;28;19958;-57
2022/08/21 14:22:57;;;;;;;;;;;26.30;82.70;;;;;;5068627;28;20284;-56
2022/08/21 14:25:22;;;;;;;;;;;26.20;81.70;;;;;;5068687;28;19920;-58
2022/08/21 14:27:51;;;;;;;;;;;26.20;81.10;;;;;;5068524;28;20342;-57